sensor_id;sensor_type;location;lat;lon;timestamp;P1;durP1;ratioP1;P2;durP2;ratioP2
74044;SDS011;62389;51.412;5.436;2023-11-22T00:02:23;19.50;;;8.23;;
74044;SDS011;62389;51.412;5.436;2023-11-22T00:04:53;15.95;;;8.00;;
74044;SDS011;62389;51.412;5.436;2023-11-22T00:07:18;18.40;;;8.88;;
74044;SDS011;62389;51.412;5.436;2023-11-22T00:09:44;20.60;;;9.18;;
74044;SDS011;62389;51.412;5.436;2023-11-22T00:12:11;19.45;;;8.95;;
74044;SDS011;62389;51.412;5.436;2023-11-22T00:14:36;15.32;;;8.23;;
74044;SDS011;62389;51.412;5.436;2023-11-22T00:17:02;17.48;;;8.02;;
74044;SDS011;62389;51.412;5.436;2023-11-22T00:19:27;15.43;;;8.13;;
74044;SDS011;62389;51.412;5.436;2023-11-22T00:21:52;16.83;;;8.15;;
74044;SDS011;62389;51.412;5.436;2023-11-22T00:24:18;16.45;;;8.10;;
74044;SDS011;62389;51.412;5.436;2023-11-22T00:26:43;18.30;;;8.77;;
74044;SDS011;62389;51.412;5.436;2023-11-22T00:29:09;15.60;;;7.82;;
74044;SDS011;62389;51.412;5.436;2023-11-22T00:31:34;20.20;;;9.10;;
74044;SDS011;62389;51.412;5.436;2023-11-22T00:33:59;14.68;;;7.88;;
74044;SDS011;62389;51.412;5.436;2023-11-22T00:36:25;16.15;;;7.85;;
74044;SDS011;62389;51.412;5.436;2023-11-22T00:38:50;16.35;;;8.00;;
74044;SDS011;62389;51.412;5.436;2023-11-22T00:41:16;14.88;;;7.65;;
74044;SDS011;62389;51.412;5.436;2023-11-22T00:43:42;15.27;;;8.18;;
74044;SDS011;62389;51.412;5.436;2023-11-22T00:46:07;16.05;;;8.20;;
74044;SDS011;62389;51.412;5.436;2023-11-22T00:48:32;16.25;;;8.27;;
74044;SDS011;62389;51.412;5.436;2023-11-22T00:50:58;16.83;;;8.98;;
74044;SDS011;62389;51.412;5.436;2023-11-22T00:53:24;14.38;;;7.95;;
74044;SDS011;62389;51.412;5.436;2023-11-22T00:55:49;15.75;;;8.38;;
74044;SDS011;62389;51.412;5.436;2023-11-22T00:58:15;19.35;;;9.02;;
74044;SDS011;62389;51.412;5.436;2023-11-22T01:00:40;16.35;;;8.70;;
74044;SDS011;62389;51.412;5.436;2023-11-22T01:03:06;17.13;;;8.13;;
74044;SDS011;62389;51.412;5.436;2023-11-22T01:05:34;16.35;;;8.80;;
74044;SDS011;62389;51.412;5.436;2023-11-22T01:07:59;16.63;;;8.57;;
74044;SDS011;62389;51.412;5.436;2023-11-22T01:10:24;19.08;;;9.20;;
74044;SDS011;62389;51.412;5.436;2023-11-22T01:12:50;15.82;;;8.45;;
74044;SDS011;62389;51.412;5.436;2023-11-22T01:15:15;17.33;;;9.00;;
74044;SDS011;62389;51.412;5.436;2023-11-22T01:17:41;15.75;;;8.18;;
74044;SDS011;62389;51.412;5.436;2023-11-22T01:20:07;16.77;;;7.95;;
74044;SDS011;62389;51.412;5.436;2023-11-22T01:22:34;17.33;;;8.27;;
74044;SDS011;62389;51.412;5.436;2023-11-22T01:25:00;16.52;;;7.65;;
74044;SDS011;62389;51.412;5.436;2023-11-22T01:27:26;14.75;;;7.57;;
74044;SDS011;62389;51.412;5.436;2023-11-22T01:29:52;15.52;;;7.55;;
74044;SDS011;62389;51.412;5.436;2023-11-22T01:32:19;16.83;;;7.68;;
74044;SDS011;62389;51.412;5.436;2023-11-22T01:34:46;19.30;;;7.82;;
74044;SDS011;62389;51.412;5.436;2023-11-22T01:37:11;15.35;;;8.05;;
74044;SDS011;62389;51.412;5.436;2023-11-22T01:39:39;19.05;;;8.15;;
74044;SDS011;62389;51.412;5.436;2023-11-22T01:42:05;14.60;;;7.30;;
74044;SDS011;62389;51.412;5.436;2023-11-22T01:44:31;14.88;;;7.35;;
74044;SDS011;62389;51.412;5.436;2023-11-22T01:46:57;13.80;;;7.10;;
74044;SDS011;62389;51.412;5.436;2023-11-22T01:49:23;18.00;;;7.43;;
74044;SDS011;62389;51.412;5.436;2023-11-22T01:51:48;14.75;;;7.05;;
74044;SDS011;62389;51.412;5.436;2023-11-22T01:54:14;15.80;;;6.85;;
74044;SDS011;62389;51.412;5.436;2023-11-22T01:56:43;14.23;;;7.90;;
74044;SDS011;62389;51.412;5.436;2023-11-22T01:59:10;15.57;;;7.47;;
74044;SDS011;62389;51.412;5.436;2023-11-22T02:01:36;16.02;;;8.00;;
74044;SDS011;62389;51.412;5.436;2023-11-22T02:04:02;16.98;;;8.35;;
74044;SDS011;62389;51.412;5.436;2023-11-22T02:06:27;17.10;;;7.82;;
74044;SDS011;62389;51.412;5.436;2023-11-22T02:08:54;17.05;;;7.93;;
74044;SDS011;62389;51.412;5.436;2023-11-22T02:11:20;15.65;;;8.15;;
74044;SDS011;62389;51.412;5.436;2023-11-22T02:13:47;16.70;;;7.53;;
74044;SDS011;62389;51.412;5.436;2023-11-22T02:16:14;15.43;;;7.55;;
74044;SDS011;62389;51.412;5.436;2023-11-22T02:18:39;14.00;;;6.45;;
74044;SDS011;62389;51.412;5.436;2023-11-22T02:21:07;15.52;;;7.38;;
74044;SDS011;62389;51.412;5.436;2023-11-22T02:23:32;14.57;;;7.03;;
74044;SDS011;62389;51.412;5.436;2023-11-22T02:25:57;14.48;;;7.72;;
74044;SDS011;62389;51.412;5.436;2023-11-22T02:28:24;15.68;;;8.27;;
74044;SDS011;62389;51.412;5.436;2023-11-22T02:30:49;16.70;;;7.78;;
74044;SDS011;62389;51.412;5.436;2023-11-22T02:33:14;13.20;;;6.97;;
74044;SDS011;62389;51.412;5.436;2023-11-22T02:35:40;12.68;;;7.32;;
74044;SDS011;62389;51.412;5.436;2023-11-22T02:38:05;14.80;;;7.53;;
74044;SDS011;62389;51.412;5.436;2023-11-22T02:40:31;17.23;;;8.13;;
74044;SDS011;62389;51.412;5.436;2023-11-22T02:42:56;17.70;;;8.27;;
74044;SDS011;62389;51.412;5.436;2023-11-22T02:45:26;14.52;;;7.03;;
74044;SDS011;62389;51.412;5.436;2023-11-22T02:47:53;15.48;;;7.82;;
74044;SDS011;62389;51.412;5.436;2023-11-22T02:50:19;14.00;;;7.03;;
74044;SDS011;62389;51.412;5.436;2023-11-22T02:52:44;16.02;;;7.57;;
74044;SDS011;62389;51.412;5.436;2023-11-22T02:55:10;15.32;;;7.32;;
74044;SDS011;62389;51.412;5.436;2023-11-22T02:57:36;16.90;;;7.88;;
74044;SDS011;62389;51.412;5.436;2023-11-22T03:00:02;17.15;;;7.40;;
74044;SDS011;62389;51.412;5.436;2023-11-22T03:02:32;14.32;;;7.15;;
74044;SDS011;62389;51.412;5.436;2023-11-22T03:04:58;15.10;;;6.75;;
74044;SDS011;62389;51.412;5.436;2023-11-22T03:07:25;16.40;;;7.53;;
74044;SDS011;62389;51.412;5.436;2023-11-22T03:09:51;14.88;;;7.22;;
74044;SDS011;62389;51.412;5.436;2023-11-22T03:12:17;15.75;;;7.30;;
74044;SDS011;62389;51.412;5.436;2023-11-22T03:14:45;19.13;;;7.80;;
74044;SDS011;62389;51.412;5.436;2023-11-22T03:17:11;14.10;;;7.60;;
74044;SDS011;62389;51.412;5.436;2023-11-22T03:19:37;14.40;;;6.72;;
74044;SDS011;62389;51.412;5.436;2023-11-22T03:22:02;14.82;;;7.38;;
74044;SDS011;62389;51.412;5.436;2023-11-22T03:24:28;14.85;;;7.28;;
74044;SDS011;62389;51.412;5.436;2023-11-22T03:26:55;14.43;;;7.57;;
74044;SDS011;62389;51.412;5.436;2023-11-22T03:29:23;16.40;;;7.85;;
74044;SDS011;62389;51.412;5.436;2023-11-22T03:31:49;14.20;;;7.03;;
74044;SDS011;62389;51.412;5.436;2023-11-22T03:34:15;12.55;;;6.30;;
74044;SDS011;62389;51.412;5.436;2023-11-22T03:36:40;16.63;;;7.97;;
74044;SDS011;62389;51.412;5.436;2023-11-22T03:39:06;18.60;;;8.20;;
74044;SDS011;62389;51.412;5.436;2023-11-22T03:41:31;16.23;;;8.05;;
74044;SDS011;62389;51.412;5.436;2023-11-22T03:43:56;15.95;;;7.15;;
74044;SDS011;62389;51.412;5.436;2023-11-22T03:46:22;15.90;;;7.85;;
74044;SDS011;62389;51.412;5.436;2023-11-22T03:48:47;16.98;;;7.32;;
74044;SDS011;62389;51.412;5.436;2023-11-22T03:51:12;14.20;;;7.10;;
74044;SDS011;62389;51.412;5.436;2023-11-22T03:53:38;14.05;;;7.28;;
74044;SDS011;62389;51.412;5.436;2023-11-22T03:56:03;16.80;;;7.47;;
74044;SDS011;62389;51.412;5.436;2023-11-22T03:58:29;11.98;;;6.63;;
74044;SDS011;62389;51.412;5.436;2023-11-22T04:00:54;15.30;;;6.50;;
74044;SDS011;62389;51.412;5.436;2023-11-22T04:03:20;14.93;;;7.50;;
74044;SDS011;62389;51.412;5.436;2023-11-22T04:05:45;14.93;;;6.57;;
74044;SDS011;62389;51.412;5.436;2023-11-22T04:08:10;15.93;;;7.00;;
74044;SDS011;62389;51.412;5.436;2023-11-22T04:10:36;16.17;;;7.55;;
74044;SDS011;62389;51.412;5.436;2023-11-22T04:13:01;17.85;;;7.50;;
74044;SDS011;62389;51.412;5.436;2023-11-22T04:15:26;14.40;;;7.18;;
74044;SDS011;62389;51.412;5.436;2023-11-22T04:17:52;11.90;;;5.95;;
74044;SDS011;62389;51.412;5.436;2023-11-22T04:20:19;15.07;;;6.80;;
74044;SDS011;62389;51.412;5.436;2023-11-22T04:22:45;13.50;;;6.78;;
74044;SDS011;62389;51.412;5.436;2023-11-22T04:25:11;14.70;;;7.13;;
74044;SDS011;62389;51.412;5.436;2023-11-22T04:27:39;15.10;;;7.55;;
74044;SDS011;62389;51.412;5.436;2023-11-22T04:30:06;15.05;;;6.38;;
74044;SDS011;62389;51.412;5.436;2023-11-22T04:32:42;13.68;;;6.78;;
74044;SDS011;62389;51.412;5.436;2023-11-22T04:35:08;13.15;;;6.30;;
74044;SDS011;62389;51.412;5.436;2023-11-22T04:37:34;14.60;;;6.75;;
74044;SDS011;62389;51.412;5.436;2023-11-22T04:40:00;12.82;;;6.32;;
74044;SDS011;62389;51.412;5.436;2023-11-22T04:44:56;11.47;;;6.03;;
74044;SDS011;62389;51.412;5.436;2023-11-22T04:47:21;13.90;;;6.80;;
74044;SDS011;62389;51.412;5.436;2023-11-22T04:49:47;13.45;;;7.30;;
74044;SDS011;62389;51.412;5.436;2023-11-22T04:52:13;13.50;;;7.25;;
74044;SDS011;62389;51.412;5.436;2023-11-22T04:54:38;19.05;;;8.20;;
74044;SDS011;62389;51.412;5.436;2023-11-22T04:57:04;16.38;;;7.85;;
74044;SDS011;62389;51.412;5.436;2023-11-22T04:59:29;16.38;;;8.00;;
74044;SDS011;62389;51.412;5.436;2023-11-22T05:01:55;14.82;;;6.78;;
74044;SDS011;62389;51.412;5.436;2023-11-22T05:04:20;14.27;;;6.30;;
74044;SDS011;62389;51.412;5.436;2023-11-22T05:06:46;14.23;;;6.93;;
74044;SDS011;62389;51.412;5.436;2023-11-22T05:09:11;17.30;;;7.40;;
74044;SDS011;62389;51.412;5.436;2023-11-22T05:11:38;16.25;;;7.70;;
74044;SDS011;62389;51.412;5.436;2023-11-22T05:14:04;15.10;;;6.50;;
74044;SDS011;62389;51.412;5.436;2023-11-22T05:16:29;13.82;;;7.28;;
74044;SDS011;62389;51.412;5.436;2023-11-22T05:18:54;15.10;;;8.07;;
74044;SDS011;62389;51.412;5.436;2023-11-22T05:21:20;15.45;;;7.00;;
74044;SDS011;62389;51.412;5.436;2023-11-22T05:23:45;15.32;;;7.55;;
74044;SDS011;62389;51.412;5.436;2023-11-22T05:26:10;16.88;;;6.85;;
74044;SDS011;62389;51.412;5.436;2023-11-22T05:28:36;19.70;;;9.10;;
74044;SDS011;62389;51.412;5.436;2023-11-22T05:31:01;17.92;;;8.13;;
74044;SDS011;62389;51.412;5.436;2023-11-22T05:33:27;23.67;;;9.48;;
74044;SDS011;62389;51.412;5.436;2023-11-22T05:35:52;18.13;;;8.63;;
74044;SDS011;62389;51.412;5.436;2023-11-22T05:38:18;21.58;;;9.15;;
74044;SDS011;62389;51.412;5.436;2023-11-22T05:40:44;28.05;;;9.57;;
74044;SDS011;62389;51.412;5.436;2023-11-22T05:43:10;21.15;;;8.95;;
74044;SDS011;62389;51.412;5.436;2023-11-22T05:45:35;19.40;;;8.52;;
74044;SDS011;62389;51.412;5.436;2023-11-22T05:48:01;21.25;;;9.43;;
74044;SDS011;62389;51.412;5.436;2023-11-22T05:50:26;23.27;;;9.57;;
74044;SDS011;62389;51.412;5.436;2023-11-22T05:52:52;18.30;;;8.55;;
74044;SDS011;62389;51.412;5.436;2023-11-22T05:55:17;25.58;;;9.23;;
74044;SDS011;62389;51.412;5.436;2023-11-22T05:57:43;23.77;;;9.98;;
74044;SDS011;62389;51.412;5.436;2023-11-22T06:00:09;19.83;;;9.43;;
74044;SDS011;62389;51.412;5.436;2023-11-22T06:02:35;20.45;;;9.55;;
74044;SDS011;62389;51.412;5.436;2023-11-22T06:05:02;29.42;;;8.73;;
74044;SDS011;62389;51.412;5.436;2023-11-22T06:07:28;28.65;;;8.23;;
74044;SDS011;62389;51.412;5.436;2023-11-22T06:09:54;28.45;;;9.55;;
74044;SDS011;62389;51.412;5.436;2023-11-22T06:12:19;21.10;;;8.55;;
74044;SDS011;62389;51.412;5.436;2023-11-22T06:14:45;24.02;;;8.85;;
74044;SDS011;62389;51.412;5.436;2023-11-22T06:17:11;27.88;;;10.10;;
74044;SDS011;62389;51.412;5.436;2023-11-22T06:19:37;25.08;;;8.93;;
74044;SDS011;62389;51.412;5.436;2023-11-22T06:22:02;17.63;;;8.05;;
74044;SDS011;62389;51.412;5.436;2023-11-22T06:24:28;17.67;;;7.47;;
74044;SDS011;62389;51.412;5.436;2023-11-22T06:26:53;20.55;;;8.32;;
74044;SDS011;62389;51.412;5.436;2023-11-22T06:29:19;27.70;;;8.60;;
74044;SDS011;62389;51.412;5.436;2023-11-22T06:31:45;30.60;;;9.05;;
74044;SDS011;62389;51.412;5.436;2023-11-22T06:34:10;19.13;;;7.97;;
74044;SDS011;62389;51.412;5.436;2023-11-22T06:36:36;19.48;;;8.35;;
74044;SDS011;62389;51.412;5.436;2023-11-22T06:39:01;20.17;;;7.88;;
74044;SDS011;62389;51.412;5.436;2023-11-22T06:41:27;19.05;;;8.15;;
74044;SDS011;62389;51.412;5.436;2023-11-22T06:43:53;16.80;;;7.22;;
74044;SDS011;62389;51.412;5.436;2023-11-22T06:46:19;19.13;;;8.50;;
74044;SDS011;62389;51.412;5.436;2023-11-22T06:48:44;20.45;;;8.25;;
74044;SDS011;62389;51.412;5.436;2023-11-22T06:51:10;21.20;;;7.90;;
74044;SDS011;62389;51.412;5.436;2023-11-22T06:53:35;23.05;;;8.95;;
74044;SDS011;62389;51.412;5.436;2023-11-22T06:56:01;18.13;;;8.00;;
74044;SDS011;62389;51.412;5.436;2023-11-22T06:58:26;18.60;;;7.95;;
74044;SDS011;62389;51.412;5.436;2023-11-22T07:00:52;18.63;;;8.55;;
74044;SDS011;62389;51.412;5.436;2023-11-22T07:03:17;19.15;;;8.43;;
74044;SDS011;62389;51.412;5.436;2023-11-22T07:05:43;21.65;;;8.20;;
74044;SDS011;62389;51.412;5.436;2023-11-22T07:08:09;20.02;;;9.10;;
74044;SDS011;62389;51.412;5.436;2023-11-22T07:10:36;20.60;;;9.10;;
74044;SDS011;62389;51.412;5.436;2023-11-22T07:13:02;27.02;;;8.82;;
74044;SDS011;62389;51.412;5.436;2023-11-22T07:15:27;20.50;;;8.98;;
74044;SDS011;62389;51.412;5.436;2023-11-22T07:17:53;28.10;;;10.30;;
74044;SDS011;62389;51.412;5.436;2023-11-22T07:20:19;30.08;;;9.30;;
74044;SDS011;62389;51.412;5.436;2023-11-22T07:22:45;31.75;;;10.13;;
74044;SDS011;62389;51.412;5.436;2023-11-22T07:25:11;26.95;;;10.48;;
74044;SDS011;62389;51.412;5.436;2023-11-22T07:27:45;35.72;;;10.23;;
74044;SDS011;62389;51.412;5.436;2023-11-22T07:30:12;28.02;;;10.02;;
74044;SDS011;62389;51.412;5.436;2023-11-22T07:32:38;29.02;;;11.40;;
74044;SDS011;62389;51.412;5.436;2023-11-22T07:35:05;25.73;;;9.85;;
74044;SDS011;62389;51.412;5.436;2023-11-22T07:37:33;34.45;;;10.20;;
74044;SDS011;62389;51.412;5.436;2023-11-22T07:40:00;28.95;;;10.43;;
74044;SDS011;62389;51.412;5.436;2023-11-22T07:42:28;36.22;;;11.38;;
74044;SDS011;62389;51.412;5.436;2023-11-22T07:44:53;27.55;;;11.38;;
74044;SDS011;62389;51.412;5.436;2023-11-22T07:47:21;27.40;;;10.27;;
74044;SDS011;62389;51.412;5.436;2023-11-22T07:49:47;35.00;;;13.35;;
74044;SDS011;62389;51.412;5.436;2023-11-22T07:52:13;27.75;;;11.25;;
74044;SDS011;62389;51.412;5.436;2023-11-22T07:54:39;30.48;;;12.32;;
74044;SDS011;62389;51.412;5.436;2023-11-22T07:57:05;33.03;;;10.65;;
74044;SDS011;62389;51.412;5.436;2023-11-22T07:59:32;31.33;;;11.10;;
74044;SDS011;62389;51.412;5.436;2023-11-22T08:01:58;41.75;;;12.75;;
74044;SDS011;62389;51.412;5.436;2023-11-22T08:04:23;30.08;;;12.52;;
74044;SDS011;62389;51.412;5.436;2023-11-22T08:06:49;36.10;;;12.15;;
74044;SDS011;62389;51.412;5.436;2023-11-22T08:09:16;31.83;;;11.80;;
74044;SDS011;62389;51.412;5.436;2023-11-22T08:11:42;36.97;;;12.18;;
74044;SDS011;62389;51.412;5.436;2023-11-22T08:14:08;35.08;;;12.98;;
74044;SDS011;62389;51.412;5.436;2023-11-22T08:16:33;38.08;;;12.65;;
74044;SDS011;62389;51.412;5.436;2023-11-22T08:19:03;41.95;;;13.02;;
74044;SDS011;62389;51.412;5.436;2023-11-22T08:21:30;42.38;;;14.48;;
74044;SDS011;62389;51.412;5.436;2023-11-22T08:23:55;54.63;;;15.98;;
74044;SDS011;62389;51.412;5.436;2023-11-22T08:26:21;36.38;;;13.70;;
74044;SDS011;62389;51.412;5.436;2023-11-22T08:28:46;48.28;;;15.82;;
74044;SDS011;62389;51.412;5.436;2023-11-22T08:31:11;46.95;;;16.20;;
74044;SDS011;62389;51.412;5.436;2023-11-22T08:33:37;45.67;;;15.38;;
74044;SDS011;62389;51.412;5.436;2023-11-22T08:36:04;46.30;;;15.43;;
74044;SDS011;62389;51.412;5.436;2023-11-22T08:38:30;54.78;;;15.93;;
74044;SDS011;62389;51.412;5.436;2023-11-22T08:43:25;49.08;;;14.93;;
74044;SDS011;62389;51.412;5.436;2023-11-22T08:45:50;47.60;;;16.10;;
74044;SDS011;62389;51.412;5.436;2023-11-22T08:48:16;49.33;;;15.48;;
74044;SDS011;62389;51.412;5.436;2023-11-22T08:50:42;50.33;;;16.35;;
74044;SDS011;62389;51.412;5.436;2023-11-22T08:53:09;51.00;;;15.25;;
74044;SDS011;62389;51.412;5.436;2023-11-22T08:55:34;54.42;;;17.33;;
74044;SDS011;62389;51.412;5.436;2023-11-22T08:57:59;44.22;;;16.80;;
74044;SDS011;62389;51.412;5.436;2023-11-22T09:00:25;45.60;;;17.20;;
74044;SDS011;62389;51.412;5.436;2023-11-22T09:02:53;54.58;;;17.08;;
74044;SDS011;62389;51.412;5.436;2023-11-22T09:05:20;44.28;;;15.23;;
74044;SDS011;62389;51.412;5.436;2023-11-22T09:07:46;54.17;;;18.25;;
74044;SDS011;62389;51.412;5.436;2023-11-22T09:10:12;63.88;;;18.55;;
74044;SDS011;62389;51.412;5.436;2023-11-22T09:12:39;52.40;;;16.40;;
74044;SDS011;62389;51.412;5.436;2023-11-22T09:15:09;56.50;;;17.67;;
74044;SDS011;62389;51.412;5.436;2023-11-22T09:17:38;50.90;;;18.98;;
74044;SDS011;62389;51.412;5.436;2023-11-22T09:20:17;51.03;;;18.55;;
74044;SDS011;62389;51.412;5.436;2023-11-22T09:22:43;48.15;;;16.70;;
74044;SDS011;62389;51.412;5.436;2023-11-22T09:25:21;49.40;;;16.95;;
74044;SDS011;62389;51.412;5.436;2023-11-22T09:27:51;51.08;;;19.63;;
74044;SDS011;62389;51.412;5.436;2023-11-22T09:30:21;52.28;;;17.83;;
74044;SDS011;62389;51.412;5.436;2023-11-22T09:33:08;47.60;;;16.25;;
74044;SDS011;62389;51.412;5.436;2023-11-22T09:38:02;56.25;;;18.23;;
74044;SDS011;62389;51.412;5.436;2023-11-22T09:42:56;49.70;;;17.92;;
74044;SDS011;62389;51.412;5.436;2023-11-22T09:45:22;47.15;;;16.38;;
74044;SDS011;62389;51.412;5.436;2023-11-22T09:53:22;46.85;;;17.30;;
74044;SDS011;62389;51.412;5.436;2023-11-22T09:55:55;52.17;;;19.63;;
74044;SDS011;62389;51.412;5.436;2023-11-22T09:58:22;47.85;;;16.27;;
74044;SDS011;62389;51.412;5.436;2023-11-22T10:00:49;51.60;;;17.42;;
74044;SDS011;62389;51.412;5.436;2023-11-22T10:03:17;46.53;;;17.10;;
74044;SDS011;62389;51.412;5.436;2023-11-22T10:05:43;51.13;;;19.52;;
74044;SDS011;62389;51.412;5.436;2023-11-22T10:08:09;49.25;;;16.42;;
74044;SDS011;62389;51.412;5.436;2023-11-22T10:10:35;48.97;;;17.92;;
74044;SDS011;62389;51.412;5.436;2023-11-22T10:13:01;48.97;;;17.40;;
74044;SDS011;62389;51.412;5.436;2023-11-22T10:15:28;52.20;;;18.27;;
74044;SDS011;62389;51.412;5.436;2023-11-22T10:17:58;51.88;;;17.45;;
74044;SDS011;62389;51.412;5.436;2023-11-22T10:20:35;53.17;;;18.73;;
74044;SDS011;62389;51.412;5.436;2023-11-22T10:23:10;50.22;;;17.58;;
74044;SDS011;62389;51.412;5.436;2023-11-22T10:25:45;49.25;;;16.98;;
74044;SDS011;62389;51.412;5.436;2023-11-22T10:28:16;42.80;;;16.95;;
74044;SDS011;62389;51.412;5.436;2023-11-22T10:30:43;45.78;;;17.15;;
74044;SDS011;62389;51.412;5.436;2023-11-22T10:33:11;44.80;;;18.45;;
74044;SDS011;62389;51.412;5.436;2023-11-22T10:35:46;51.42;;;18.00;;
74044;SDS011;62389;51.412;5.436;2023-11-22T10:38:19;47.35;;;18.23;;
74044;SDS011;62389;51.412;5.436;2023-11-22T10:40:45;44.13;;;16.75;;
74044;SDS011;62389;51.412;5.436;2023-11-22T10:43:13;42.20;;;16.50;;
74044;SDS011;62389;51.412;5.436;2023-11-22T10:45:39;42.10;;;16.30;;
74044;SDS011;62389;51.412;5.436;2023-11-22T10:48:09;43.08;;;16.30;;
74044;SDS011;62389;51.412;5.436;2023-11-22T10:50:36;39.58;;;15.10;;
74044;SDS011;62389;51.412;5.436;2023-11-22T10:53:02;41.08;;;14.45;;
74044;SDS011;62389;51.412;5.436;2023-11-22T10:55:32;33.75;;;13.98;;
74044;SDS011;62389;51.412;5.436;2023-11-22T10:58:07;33.60;;;14.88;;
74044;SDS011;62389;51.412;5.436;2023-11-22T11:00:34;39.03;;;15.27;;
74044;SDS011;62389;51.412;5.436;2023-11-22T11:03:06;38.20;;;15.15;;
74044;SDS011;62389;51.412;5.436;2023-11-22T11:05:34;41.38;;;14.88;;
74044;SDS011;62389;51.412;5.436;2023-11-22T11:08:11;32.72;;;13.23;;
74044;SDS011;62389;51.412;5.436;2023-11-22T11:10:41;38.65;;;15.10;;
74044;SDS011;62389;51.412;5.436;2023-11-22T11:13:07;33.05;;;12.60;;
74044;SDS011;62389;51.412;5.436;2023-11-22T11:15:37;33.03;;;12.88;;
74044;SDS011;62389;51.412;5.436;2023-11-22T11:18:08;34.97;;;14.80;;
74044;SDS011;62389;51.412;5.436;2023-11-22T11:23:26;39.63;;;14.20;;
74044;SDS011;62389;51.412;5.436;2023-11-22T11:25:53;36.13;;;13.80;;
74044;SDS011;62389;51.412;5.436;2023-11-22T11:28:23;32.40;;;13.57;;
74044;SDS011;62389;51.412;5.436;2023-11-22T11:30:52;32.22;;;14.18;;
74044;SDS011;62389;51.412;5.436;2023-11-22T11:33:19;31.25;;;13.20;;
74044;SDS011;62389;51.412;5.436;2023-11-22T11:35:52;36.15;;;14.05;;
74044;SDS011;62389;51.412;5.436;2023-11-22T11:38:20;30.27;;;13.10;;
74044;SDS011;62389;51.412;5.436;2023-11-22T11:40:47;48.60;;;16.27;;
74044;SDS011;62389;51.412;5.436;2023-11-22T11:43:13;43.83;;;15.70;;
74044;SDS011;62389;51.412;5.436;2023-11-22T11:45:40;33.95;;;14.50;;
74044;SDS011;62389;51.412;5.436;2023-11-22T11:48:12;38.38;;;14.45;;
74044;SDS011;62389;51.412;5.436;2023-11-22T11:50:41;40.38;;;15.15;;
74044;SDS011;62389;51.412;5.436;2023-11-22T11:53:08;35.03;;;16.25;;
74044;SDS011;62389;51.412;5.436;2023-11-22T11:55:35;35.55;;;14.68;;
74044;SDS011;62389;51.412;5.436;2023-11-22T11:58:05;32.75;;;14.80;;
74044;SDS011;62389;51.412;5.436;2023-11-22T12:00:34;37.78;;;15.43;;
74044;SDS011;62389;51.412;5.436;2023-11-22T12:03:00;44.75;;;16.40;;
74044;SDS011;62389;51.412;5.436;2023-11-22T12:05:25;40.10;;;15.85;;
74044;SDS011;62389;51.412;5.436;2023-11-22T12:10:18;40.88;;;16.35;;
74044;SDS011;62389;51.412;5.436;2023-11-22T12:12:44;37.75;;;15.38;;
74044;SDS011;62389;51.412;5.436;2023-11-22T12:15:10;39.03;;;15.82;;
74044;SDS011;62389;51.412;5.436;2023-11-22T12:17:36;36.83;;;14.95;;
74044;SDS011;62389;51.412;5.436;2023-11-22T12:20:11;36.20;;;14.88;;
74044;SDS011;62389;51.412;5.436;2023-11-22T12:22:39;38.92;;;15.73;;
74044;SDS011;62389;51.412;5.436;2023-11-22T12:25:06;32.67;;;14.05;;
74044;SDS011;62389;51.412;5.436;2023-11-22T12:27:32;39.03;;;13.57;;
74044;SDS011;62389;51.412;5.436;2023-11-22T12:29:57;32.13;;;14.20;;
74044;SDS011;62389;51.412;5.436;2023-11-22T12:32:26;32.30;;;13.10;;
74044;SDS011;62389;51.412;5.436;2023-11-22T12:34:51;31.13;;;13.05;;
74044;SDS011;62389;51.412;5.436;2023-11-22T12:37:21;29.42;;;12.70;;
74044;SDS011;62389;51.412;5.436;2023-11-22T12:39:48;30.85;;;13.20;;
74044;SDS011;62389;51.412;5.436;2023-11-22T12:42:13;32.72;;;13.15;;
74044;SDS011;62389;51.412;5.436;2023-11-22T12:44:51;30.20;;;12.90;;
74044;SDS011;62389;51.412;5.436;2023-11-22T12:47:32;31.40;;;12.23;;
74044;SDS011;62389;51.412;5.436;2023-11-22T12:50:01;29.08;;;12.63;;
74044;SDS011;62389;51.412;5.436;2023-11-22T12:52:29;29.48;;;13.38;;
74044;SDS011;62389;51.412;5.436;2023-11-22T12:54:55;30.33;;;12.35;;
74044;SDS011;62389;51.412;5.436;2023-11-22T12:57:20;29.48;;;12.07;;
74044;SDS011;62389;51.412;5.436;2023-11-22T12:59:47;29.60;;;13.30;;
74044;SDS011;62389;51.412;5.436;2023-11-22T13:02:13;30.15;;;14.27;;
74044;SDS011;62389;51.412;5.436;2023-11-22T13:04:40;32.80;;;12.63;;
74044;SDS011;62389;51.412;5.436;2023-11-22T13:07:05;27.60;;;11.95;;
74044;SDS011;62389;51.412;5.436;2023-11-22T13:09:31;29.15;;;12.38;;
74044;SDS011;62389;51.412;5.436;2023-11-22T13:11:58;27.38;;;12.70;;
74044;SDS011;62389;51.412;5.436;2023-11-22T13:14:24;28.42;;;11.77;;
74044;SDS011;62389;51.412;5.436;2023-11-22T13:16:51;31.45;;;12.15;;
74044;SDS011;62389;51.412;5.436;2023-11-22T13:19:16;27.25;;;12.73;;
74044;SDS011;62389;51.412;5.436;2023-11-22T13:21:42;28.45;;;11.60;;
74044;SDS011;62389;51.412;5.436;2023-11-22T13:26:36;34.25;;;13.05;;
74044;SDS011;62389;51.412;5.436;2023-11-22T13:29:01;34.67;;;14.50;;
74044;SDS011;62389;51.412;5.436;2023-11-22T13:31:27;32.33;;;13.52;;
74044;SDS011;62389;51.412;5.436;2023-11-22T13:33:52;34.67;;;14.00;;
74044;SDS011;62389;51.412;5.436;2023-11-22T13:36:17;31.08;;;15.45;;
74044;SDS011;62389;51.412;5.436;2023-11-22T13:38:50;32.45;;;15.18;;
74044;SDS011;62389;51.412;5.436;2023-11-22T13:41:15;38.70;;;15.52;;
74044;SDS011;62389;51.412;5.436;2023-11-22T13:43:40;35.95;;;15.60;;
74044;SDS011;62389;51.412;5.436;2023-11-22T13:46:06;37.72;;;16.90;;
74044;SDS011;62389;51.412;5.436;2023-11-22T13:48:35;36.60;;;14.32;;
74044;SDS011;62389;51.412;5.436;2023-11-22T13:51:00;31.65;;;13.18;;
74044;SDS011;62389;51.412;5.436;2023-11-22T13:53:27;38.97;;;15.77;;
74044;SDS011;62389;51.412;5.436;2023-11-22T13:55:58;39.90;;;14.75;;
74044;SDS011;62389;51.412;5.436;2023-11-22T13:58:25;35.88;;;13.38;;
74044;SDS011;62389;51.412;5.436;2023-11-22T14:00:51;33.05;;;13.73;;
74044;SDS011;62389;51.412;5.436;2023-11-22T14:03:19;48.13;;;14.32;;
74044;SDS011;62389;51.412;5.436;2023-11-22T14:05:44;40.95;;;13.93;;
74044;SDS011;62389;51.412;5.436;2023-11-22T14:08:10;32.97;;;14.23;;
74044;SDS011;62389;51.412;5.436;2023-11-22T14:10:35;40.67;;;15.13;;
74044;SDS011;62389;51.412;5.436;2023-11-22T14:13:00;37.85;;;14.98;;
74044;SDS011;62389;51.412;5.436;2023-11-22T14:15:27;33.53;;;13.95;;
74044;SDS011;62389;51.412;5.436;2023-11-22T14:17:53;40.60;;;15.35;;
74044;SDS011;62389;51.412;5.436;2023-11-22T14:20:19;38.88;;;15.30;;
74044;SDS011;62389;51.412;5.436;2023-11-22T14:22:46;36.58;;;14.93;;
74044;SDS011;62389;51.412;5.436;2023-11-22T14:25:11;37.88;;;14.65;;
74044;SDS011;62389;51.412;5.436;2023-11-22T14:27:38;37.47;;;16.05;;
74044;SDS011;62389;51.412;5.436;2023-11-22T14:30:09;38.35;;;15.75;;
74044;SDS011;62389;51.412;5.436;2023-11-22T14:32:36;35.80;;;15.18;;
74044;SDS011;62389;51.412;5.436;2023-11-22T14:35:02;41.55;;;15.85;;
74044;SDS011;62389;51.412;5.436;2023-11-22T14:37:29;39.35;;;16.00;;
74044;SDS011;62389;51.412;5.436;2023-11-22T14:39:55;41.53;;;16.90;;
74044;SDS011;62389;51.412;5.436;2023-11-22T14:42:21;41.10;;;17.27;;
74044;SDS011;62389;51.412;5.436;2023-11-22T14:44:46;54.70;;;18.38;;
74044;SDS011;62389;51.412;5.436;2023-11-22T14:47:12;45.40;;;18.48;;
74044;SDS011;62389;51.412;5.436;2023-11-22T14:49:41;43.97;;;16.20;;